createdAt,value
2018-08-13T00:01:05.803Z,62.67
2018-08-13T00:03:34.572Z,62.68
2018-08-13T00:06:03.231Z,63.69
2018-08-13T00:08:32.141Z,63.78
2018-08-13T00:11:00.775Z,63.84
2018-08-13T00:13:29.788Z,63.71
2018-08-13T00:15:58.654Z,64.41
2018-08-13T00:18:27.311Z,64.68
2018-08-13T00:20:56.344Z,65.09
2018-08-13T00:23:24.958Z,65.88
2018-08-13T00:25:53.568Z,66.10
2018-08-13T00:28:23.010Z,66.37
2018-08-13T00:30:51.689Z,66.55
2018-08-13T00:33:20.286Z,66.79
2018-08-13T00:35:48.919Z,66.83
2018-08-13T00:38:17.558Z,67.05
2018-08-13T00:40:47.387Z,67.53
2018-08-13T00:43:16.214Z,67.19
2018-08-13T00:45:44.850Z,67.74
2018-08-13T00:48:13.444Z,67.91
2018-08-13T00:50:42.099Z,67.81
2018-08-13T00:53:10.810Z,67.58
2018-08-13T00:55:39.453Z,68.51
2018-08-13T00:58:08.100Z,68.55
2018-08-13T01:00:36.770Z,68.89
2018-08-13T01:03:06.446Z,68.63
2018-08-13T01:05:36.073Z,69.50
2018-08-13T01:08:04.840Z,69.54
2018-08-13T01:10:33.873Z,69.52
2018-08-13T01:13:02.729Z,69.97
2018-08-13T01:15:31.347Z,70.53
2018-08-13T01:18:00.642Z,70.70
2018-08-13T01:20:29.368Z,70.84
2018-08-13T01:22:58.092Z,70.75
2018-08-13T01:25:27.093Z,70.79
2018-08-13T01:27:55.971Z,70.57
2018-08-13T01:30:24.980Z,70.81
2018-08-13T01:32:53.649Z,71.42
2018-08-13T01:35:22.424Z,71.47
2018-08-13T01:37:51.026Z,71.91
2018-08-13T01:40:19.621Z,72.10
2018-08-13T01:42:48.324Z,73.19
2018-08-13T01:45:16.942Z,73.76
2018-08-13T01:47:45.650Z,73.95
2018-08-13T01:50:14.269Z,73.98
2018-08-13T01:52:43.159Z,74.04
2018-08-13T01:55:12.397Z,74.02
2018-08-13T01:57:41.008Z,74.54
2018-08-13T02:00:14.747Z,74.87
2018-08-13T02:02:43.690Z,75.00
2018-08-13T02:05:12.303Z,74.96
2018-08-13T02:07:40.981Z,75.24
2018-08-13T02:10:11.472Z,76.03
2018-08-13T02:12:40.465Z,75.96
2018-08-13T02:15:09.744Z,77.03
2018-08-13T02:17:38.432Z,76.81
2018-08-13T02:20:08.230Z,77.13
2018-08-13T02:22:37.225Z,77.14
2018-08-13T02:25:06.936Z,77.41
2018-08-13T02:27:35.629Z,77.17
2018-08-13T02:30:06.274Z,77.38
2018-08-13T02:32:34.907Z,77.59
2018-08-13T02:35:03.596Z,78.13
2018-08-13T02:37:32.910Z,78.16
2018-08-13T02:40:01.601Z,77.98
2018-08-13T02:42:30.643Z,78.15
2018-08-13T02:44:59.608Z,78.61
2018-08-13T02:47:28.219Z,79.49
2018-08-13T02:49:56.894Z,79.16
2018-08-13T02:52:25.790Z,79.36
2018-08-13T02:54:54.669Z,79.04
2018-08-13T02:57:23.465Z,79.32
2018-08-13T02:59:52.133Z,80.01
2018-08-13T03:02:21.584Z,79.75
2018-08-13T03:04:50.683Z,80.67
2018-08-13T03:07:19.432Z,80.92
2018-08-13T03:09:48.093Z,81.56
2018-08-13T03:12:16.711Z,81.70
2018-08-13T03:14:45.371Z,81.61
2018-08-13T03:17:14.037Z,82.38
2018-08-13T03:19:43.022Z,82.09
2018-08-13T03:22:11.662Z,81.74
2018-08-13T03:24:40.368Z,81.97
2018-08-13T03:27:09.088Z,82.16
2018-08-13T03:29:37.732Z,83.03
2018-08-13T03:32:06.372Z,82.40
2018-08-13T03:34:35.355Z,83.62
2018-08-13T03:37:04.005Z,83.46
2018-08-13T03:39:32.777Z,83.96
2018-08-13T03:42:01.445Z,83.29
2018-08-13T03:44:30.056Z,83.60
2018-08-13T03:46:58.688Z,83.77
2018-08-13T03:49:27.483Z,82.97
2018-08-13T03:51:56.140Z,82.87
2018-08-13T03:54:25.097Z,82.85
2018-08-13T03:56:53.820Z,81.80
2018-08-13T03:59:22.884Z,82.20
2018-08-13T04:01:51.500Z,82.83
2018-08-13T04:04:20.245Z,83.25
2018-08-13T04:06:48.859Z,83.57
2018-08-13T04:09:17.478Z,83.89
2018-08-13T04:11:46.109Z,83.68
2018-08-13T04:14:15.019Z,84.31
2018-08-13T04:16:48.088Z,84.04
2018-08-13T04:19:16.720Z,84.20
2018-08-13T04:21:45.356Z,83.65
2018-08-13T04:24:14.362Z,82.93
2018-08-13T04:26:43.021Z,82.13
2018-08-13T04:29:11.685Z,82.48
2018-08-13T04:31:40.308Z,81.43
2018-08-13T04:34:09.045Z,81.84
2018-08-13T04:36:37.669Z,81.64
2018-08-13T04:39:10.008Z,80.33
2018-08-13T04:41:38.738Z,79.89
2018-08-13T04:44:07.696Z,80.14
2018-08-13T04:46:36.366Z,79.53
2018-08-13T04:49:05.128Z,79.01
2018-08-13T04:51:34.121Z,78.06
2018-08-13T04:54:02.804Z,77.24
2018-08-13T04:56:31.432Z,76.46
2018-08-13T04:59:00.861Z,75.74
2018-08-13T05:01:29.622Z,74.64
2018-08-13T05:03:58.736Z,74.04
2018-08-13T05:06:27.678Z,72.24
2018-08-13T05:08:56.349Z,70.89
2018-08-13T05:11:24.948Z,68.72
2018-08-13T05:13:53.564Z,66.47
2018-08-13T05:16:22.543Z,64.89
2018-08-13T05:18:51.177Z,63.20
2018-08-13T05:21:20.473Z,60.38
2018-08-13T05:23:49.849Z,58.41
2018-08-13T05:26:19.257Z,53.10
2018-08-13T05:28:48.447Z,50.91
2018-08-13T05:31:17.711Z,46.52
2018-08-13T05:33:46.942Z,45.29
2018-08-13T05:36:16.143Z,43.59
2018-08-13T05:38:45.375Z,40.81
2018-08-13T05:41:14.964Z,37.34
2018-08-13T05:43:44.252Z,36.14
2018-08-13T05:46:13.474Z,34.46
2018-08-13T05:48:42.793Z,32.88
2018-08-13T05:51:12.877Z,33.19
2018-08-13T05:53:42.105Z,32.35
2018-08-13T05:56:11.340Z,32.03
2018-08-13T05:58:40.553Z,31.17
2018-08-13T06:01:09.757Z,30.76
2018-08-13T06:03:38.964Z,29.61
2018-08-13T06:06:08.252Z,28.29
2018-08-13T06:08:37.520Z,29.05
2018-08-13T06:11:06.737Z,29.04
2018-08-13T06:13:36.145Z,27.76
2018-08-13T06:16:05.940Z,26.96
2018-08-13T06:18:35.143Z,26.35
2018-08-13T06:21:04.461Z,26.05
2018-08-13T06:23:33.667Z,25.12
2018-08-13T06:26:02.895Z,25.00
2018-08-13T06:28:32.092Z,25.05
2018-08-13T06:31:01.311Z,23.87
2018-08-13T06:33:30.623Z,23.08
2018-08-13T06:35:59.562Z,23.10
2018-08-13T06:38:28.728Z,22.45
2018-08-13T06:40:58.176Z,21.53
2018-08-13T06:43:27.091Z,19.72
2018-08-13T06:45:56.069Z,20.37
2018-08-13T06:48:25.657Z,20.56
2018-08-13T06:50:54.584Z,21.72
2018-08-13T06:53:23.705Z,22.12
2018-08-13T06:55:52.645Z,21.95
2018-08-13T06:58:22.212Z,21.75
2018-08-13T07:00:51.613Z,21.53
2018-08-13T07:03:20.746Z,21.00
2018-08-13T07:05:49.749Z,21.04
2018-08-13T07:08:18.965Z,22.42
2018-08-13T07:10:48.047Z,20.31
2018-08-13T07:13:17.021Z,19.65
2018-08-13T07:15:46.322Z,17.61
2018-08-13T07:18:15.465Z,18.19
2018-08-13T07:20:44.415Z,17.38
2018-08-13T07:23:13.391Z,17.17
2018-08-13T07:25:42.621Z,16.29
2018-08-13T07:28:11.562Z,16.36
2018-08-13T07:30:40.822Z,16.72
2018-08-13T07:33:09.788Z,16.11
2018-08-13T07:35:38.772Z,16.27
2018-08-13T07:38:07.727Z,16.77
2018-08-13T07:40:36.760Z,16.18
2018-08-13T07:43:06.074Z,16.68
2018-08-13T07:45:35.695Z,16.06
2018-08-13T07:48:05.096Z,16.45
2018-08-13T07:50:34.366Z,14.78
2018-08-13T07:53:03.290Z,14.28
2018-08-13T07:55:32.326Z,14.75
2018-08-13T07:58:01.599Z,16.01
2018-08-13T08:00:30.924Z,14.84
2018-08-13T08:02:59.869Z,15.90
2018-08-13T08:05:28.848Z,15.74
2018-08-13T08:07:57.879Z,16.21
2018-08-13T08:10:26.828Z,16.24
2018-08-13T08:12:56.080Z,16.64
2018-08-13T08:15:25.140Z,16.98
2018-08-13T08:17:54.057Z,16.12
2018-08-13T08:20:23.190Z,16.70
2018-08-13T08:22:52.153Z,16.18
2018-08-13T08:25:22.416Z,16.62
2018-08-13T08:27:51.373Z,16.62
2018-08-13T08:30:20.461Z,15.59
2018-08-13T08:32:50.200Z,15.74
2018-08-13T08:35:19.183Z,15.93
2018-08-13T08:37:48.227Z,14.35
2018-08-13T08:40:19.236Z,16.27
2018-08-13T08:42:48.862Z,16.10
2018-08-13T08:45:21.920Z,15.85
2018-08-13T08:47:51.729Z,15.20
2018-08-13T08:50:20.770Z,15.53
2018-08-13T08:52:49.787Z,14.71
2018-08-13T08:55:19.375Z,14.46
2018-08-13T08:57:49.528Z,14.64
2018-08-13T09:00:20.083Z,16.25
2018-08-13T09:02:49.134Z,15.97
2018-08-13T09:05:18.076Z,16.29
2018-08-13T09:07:47.303Z,15.37
2018-08-13T09:10:16.513Z,15.65
2018-08-13T09:12:45.555Z,16.55
2018-08-13T09:15:16.195Z,18.13
2018-08-13T09:17:57.416Z,20.92
2018-08-13T09:20:37.515Z,21.18
2018-08-13T09:23:17.732Z,22.45
2018-08-13T09:25:57.799Z,22.96
2018-08-13T09:28:37.999Z,24.13
2018-08-13T09:31:25.438Z,23.98
2018-08-13T09:34:05.612Z,25.46
2018-08-13T09:36:34.927Z,26.39
2018-08-13T09:39:04.848Z,26.21
2018-08-13T09:41:34.837Z,26.25
2018-08-13T09:44:04.167Z,26.21
2018-08-13T09:46:33.743Z,26.31
2018-08-13T09:49:03.034Z,26.11
2018-08-13T09:51:32.287Z,27.06
2018-08-13T09:54:01.506Z,26.40
2018-08-13T09:56:30.758Z,26.78
2018-08-13T09:59:00.012Z,26.93
2018-08-13T10:01:29.331Z,26.71
2018-08-13T10:03:58.570Z,28.04
2018-08-13T10:06:28.128Z,26.32
2018-08-13T10:08:57.325Z,26.23
2018-08-13T10:11:26.523Z,26.59
2018-08-13T10:13:55.763Z,25.44
2018-08-13T10:16:25.048Z,25.28
2018-08-13T10:18:54.241Z,24.84
2018-08-13T10:21:23.981Z,26.98
2018-08-13T10:23:53.228Z,26.50
2018-08-13T10:26:22.607Z,24.60
2018-08-13T10:28:51.799Z,25.75
2018-08-13T10:31:21.252Z,26.65
2018-08-13T10:33:50.456Z,26.14
2018-08-13T10:36:19.649Z,26.87
2018-08-13T10:38:48.896Z,24.61
2018-08-13T10:41:18.912Z,25.11
2018-08-13T10:43:48.090Z,25.69
2018-08-13T10:46:17.796Z,26.49
2018-08-13T10:48:47.105Z,26.17
2018-08-13T10:51:16.358Z,28.56
2018-08-13T10:53:45.625Z,27.68
2018-08-13T10:56:14.875Z,26.51
2018-08-13T10:58:44.395Z,25.18
2018-08-13T11:01:14.243Z,26.39
2018-08-13T11:03:43.576Z,25.65
2018-08-13T11:06:13.050Z,27.98
2018-08-13T11:08:42.262Z,27.53
2018-08-13T11:11:11.480Z,27.35
2018-08-13T11:13:40.674Z,26.67
2018-08-13T11:16:09.897Z,26.88
2018-08-13T11:18:39.094Z,27.23
2018-08-13T11:21:08.318Z,25.62
2018-08-13T11:23:37.618Z,27.10
2018-08-13T11:26:07.064Z,27.13
2018-08-13T11:28:36.399Z,26.19
2018-08-13T11:31:06.349Z,25.48
2018-08-13T11:33:35.866Z,24.86
2018-08-13T11:36:05.109Z,25.46
2018-08-13T11:38:34.335Z,25.13
2018-08-13T11:41:04.719Z,24.65
2018-08-13T11:43:34.288Z,24.02
2018-08-13T11:46:03.552Z,24.39
2018-08-13T11:48:33.180Z,24.76
2018-08-13T11:51:02.740Z,25.36
2018-08-13T11:53:31.917Z,25.92
2018-08-13T11:56:01.133Z,26.00
2018-08-13T11:58:30.353Z,26.14
2018-08-13T12:00:59.584Z,26.48
2018-08-13T12:03:28.963Z,26.52
2018-08-13T12:05:58.185Z,26.98
2018-08-13T12:08:27.708Z,27.23
2018-08-13T12:10:57.108Z,28.37
2018-08-13T12:13:26.441Z,28.15
2018-08-13T12:15:55.665Z,28.36
2018-08-13T12:18:25.121Z,29.70
2018-08-13T12:20:54.301Z,27.34
2018-08-13T12:23:23.713Z,27.84
2018-08-13T12:25:52.944Z,27.42
2018-08-13T12:28:22.194Z,25.70
2018-08-13T12:30:51.381Z,25.14
2018-08-13T12:33:20.585Z,25.73
2018-08-13T12:35:50.032Z,26.33
2018-08-13T12:38:19.334Z,27.00
2018-08-13T12:40:48.541Z,27.15
2018-08-13T12:43:18.206Z,27.01
2018-08-13T12:45:47.459Z,24.84
2018-08-13T12:48:16.641Z,26.50
2018-08-13T12:50:45.901Z,27.85
2018-08-13T12:53:15.108Z,28.07
2018-08-13T12:55:44.288Z,27.60
2018-08-13T12:58:13.509Z,26.88
2018-08-13T13:00:42.830Z,28.04
2018-08-13T13:03:12.064Z,27.09
2018-08-13T13:05:41.237Z,25.98
2018-08-13T13:08:10.455Z,27.33
2018-08-13T13:10:39.621Z,27.77
2018-08-13T13:13:08.845Z,27.59
2018-08-13T13:15:38.084Z,27.85
2018-08-13T13:18:07.328Z,28.62
2018-08-13T13:20:36.594Z,29.35
2018-08-13T13:23:05.947Z,26.13
2018-08-13T13:25:35.144Z,26.49
2018-08-13T13:28:04.469Z,27.52
2018-08-13T13:30:33.999Z,28.04
2018-08-13T13:33:03.226Z,27.06
2018-08-13T13:35:32.397Z,26.89
2018-08-13T13:38:01.747Z,27.45
2018-08-13T13:40:31.048Z,28.64
2018-08-13T13:43:00.700Z,28.47
2018-08-13T13:45:29.876Z,27.43
2018-08-13T13:47:59.052Z,28.23
2018-08-13T13:50:28.233Z,28.95
2018-08-13T13:52:57.461Z,28.29
2018-08-13T13:55:26.929Z,27.05
2018-08-13T13:57:56.110Z,27.28
2018-08-13T14:00:25.379Z,26.98
2018-08-13T14:02:54.586Z,27.41
2018-08-13T14:08:10.232Z,26.22
2018-08-13T14:10:39.503Z,26.79
2018-08-13T14:13:08.703Z,25.88
2018-08-13T14:15:38.148Z,27.51
2018-08-13T14:18:07.371Z,26.51
2018-08-13T14:20:36.914Z,26.56
2018-08-13T14:23:06.217Z,25.37
2018-08-13T14:25:35.405Z,26.70
2018-08-13T14:28:04.716Z,26.17
2018-08-13T14:30:34.165Z,25.99
2018-08-13T14:33:04.141Z,26.28
2018-08-13T14:35:33.380Z,26.12
2018-08-13T14:38:02.612Z,25.86
2018-08-13T14:40:32.223Z,26.19
2018-08-13T14:43:01.815Z,25.39
2018-08-13T14:45:31.344Z,26.56
2018-08-13T14:48:00.663Z,27.12
2018-08-13T14:50:29.993Z,27.21
2018-08-13T14:52:59.577Z,27.85
2018-08-13T14:55:28.921Z,27.28
2018-08-13T14:57:58.212Z,26.69
2018-08-13T15:00:34.847Z,27.71
2018-08-13T15:03:04.400Z,26.86
2018-08-13T15:05:33.827Z,26.65
2018-08-13T15:08:03.684Z,27.09
2018-08-13T15:10:32.928Z,25.83
2018-08-13T15:13:02.307Z,25.61
2018-08-13T15:15:31.695Z,27.05
2018-08-13T15:18:01.072Z,26.52
2018-08-13T15:20:31.621Z,26.79
2018-08-13T15:23:00.919Z,27.77
2018-08-13T15:25:30.428Z,28.90
2018-08-13T15:27:59.859Z,27.24
2018-08-13T15:30:29.208Z,26.51
2018-08-13T15:32:58.523Z,26.64
2018-08-13T15:35:27.760Z,26.15
2018-08-13T15:37:56.938Z,26.05
2018-08-13T15:40:26.191Z,27.50
2018-08-13T15:42:55.466Z,28.42
2018-08-13T15:45:25.278Z,27.74
2018-08-13T15:47:54.643Z,25.78
2018-08-13T15:50:24.489Z,26.64
2018-08-13T15:52:53.794Z,27.67
2018-08-13T15:55:23.396Z,27.11
2018-08-13T15:57:52.821Z,26.66
2018-08-13T16:00:25.154Z,26.86
2018-08-13T16:02:54.516Z,27.31
2018-08-13T16:05:23.956Z,27.97
2018-08-13T16:07:53.708Z,28.72
2018-08-13T16:10:23.072Z,27.95
2018-08-13T16:12:52.367Z,28.04
2018-08-13T16:15:22.034Z,28.62
2018-08-13T16:17:51.560Z,29.07
2018-08-13T16:20:20.796Z,29.37
2018-08-13T16:22:50.276Z,28.28
2018-08-13T16:25:20.208Z,28.90
2018-08-13T16:27:49.488Z,28.54
2018-08-13T16:30:21.291Z,27.99
2018-08-13T16:32:50.685Z,28.03
2018-08-13T16:35:20.322Z,28.96
2018-08-13T16:37:49.877Z,28.34
2018-08-13T16:40:19.780Z,28.48
2018-08-13T16:42:49.692Z,29.21
2018-08-13T16:45:20.064Z,29.38
2018-08-13T16:47:49.425Z,29.60
2018-08-13T16:50:32.158Z,28.56
2018-08-13T16:53:02.002Z,29.34
2018-08-13T16:55:32.676Z,29.54
2018-08-13T16:58:02.656Z,29.42
2018-08-13T17:00:32.765Z,30.31
2018-08-13T17:03:02.682Z,30.35
2018-08-13T17:05:58.561Z,31.22
2018-08-13T17:08:27.860Z,31.50
2018-08-13T17:11:16.006Z,31.06
2018-08-13T17:13:45.324Z,30.31
2018-08-13T17:16:14.563Z,31.71
2018-08-13T17:18:43.788Z,31.92
2018-08-13T17:21:13.240Z,30.30
2018-08-13T17:23:42.544Z,31.70
2018-08-13T17:26:12.101Z,31.12
2018-08-13T17:28:41.340Z,32.24
2018-08-13T17:31:10.873Z,31.28
2018-08-13T17:33:40.047Z,32.55
2018-08-13T17:36:09.249Z,32.54
2018-08-13T17:38:38.518Z,32.19
2018-08-13T17:41:09.065Z,32.15
2018-08-13T17:43:38.317Z,32.16
2018-08-13T17:46:07.975Z,32.39
2018-08-13T17:48:37.292Z,32.76
2018-08-13T17:51:06.648Z,33.73
2018-08-13T17:53:36.052Z,33.68
2018-08-13T17:56:05.350Z,34.71
2018-08-13T17:58:34.645Z,34.30
2018-08-13T18:01:04.017Z,32.91
2018-08-13T18:03:33.262Z,32.50
2018-08-13T18:06:02.556Z,33.02
2018-08-13T18:08:31.775Z,32.36
2018-08-13T18:11:00.989Z,32.52
2018-08-13T18:13:30.846Z,32.18
2018-08-13T18:16:00.082Z,33.28
2018-08-13T18:18:29.575Z,33.36
2018-08-13T18:20:58.838Z,33.59
2018-08-13T18:23:28.029Z,33.22
2018-08-13T18:25:57.752Z,33.05
2018-08-13T18:28:27.378Z,33.94
2018-08-13T18:30:56.621Z,34.04
2018-08-13T18:33:25.987Z,35.03
2018-08-13T18:35:55.276Z,34.46
2018-08-13T18:38:24.791Z,35.43
2018-08-13T18:40:54.137Z,34.56
2018-08-13T18:43:23.465Z,34.71
2018-08-13T18:45:52.666Z,34.75
2018-08-13T18:48:21.866Z,34.84
2018-08-13T18:50:51.086Z,35.93
2018-08-13T18:53:20.283Z,35.95
2018-08-13T18:55:49.892Z,35.47
2018-08-13T18:58:19.123Z,36.05
2018-08-13T19:00:51.685Z,36.08
2018-08-13T19:03:21.252Z,36.77
2018-08-13T19:05:50.541Z,37.18
2018-08-13T19:08:19.783Z,36.89
2018-08-13T19:10:49.057Z,37.04
2018-08-13T19:13:18.336Z,38.15
2018-08-13T19:16:02.810Z,36.96
2018-08-13T19:18:32.240Z,38.43
2018-08-13T19:21:01.552Z,38.18
2018-08-13T19:23:30.800Z,38.40
2018-08-13T19:26:00.023Z,39.06
2018-08-13T19:28:29.199Z,39.30
2018-08-13T19:30:58.728Z,38.59
2018-08-13T19:33:27.975Z,38.87
2018-08-13T19:35:57.458Z,38.96
2018-08-13T19:38:26.982Z,39.77
2018-08-13T19:40:56.193Z,40.08
2018-08-13T19:43:25.725Z,39.76
2018-08-13T19:45:54.957Z,39.12
2018-08-13T19:48:24.478Z,40.37
2018-08-13T19:50:53.708Z,40.70
2018-08-13T19:53:22.995Z,40.05
2018-08-13T19:55:52.221Z,40.68
2018-08-13T19:58:21.748Z,40.70
2018-08-13T20:00:50.988Z,41.22
2018-08-13T20:03:20.560Z,40.01
2018-08-13T20:05:49.752Z,41.43
2018-08-13T20:08:19.008Z,41.71
2018-08-13T20:10:48.666Z,41.62
2018-08-13T20:13:17.956Z,41.38
2018-08-13T20:15:47.208Z,41.42
2018-08-13T20:18:16.457Z,40.92
2018-08-13T20:20:45.767Z,41.41
2018-08-13T20:23:15.019Z,41.97
2018-08-13T20:25:44.248Z,41.54
2018-08-13T20:28:13.512Z,41.91
2018-08-13T20:30:43.193Z,42.09
2018-08-13T20:33:12.390Z,42.63
2018-08-13T20:35:41.727Z,43.18
2018-08-13T20:38:10.998Z,42.79
2018-08-13T20:40:40.226Z,43.61
2018-08-13T20:43:09.794Z,43.58
2018-08-13T20:45:39.006Z,43.61
2018-08-13T20:48:08.302Z,44.68
2018-08-13T20:50:37.975Z,44.75
2018-08-13T20:53:07.192Z,45.27
2018-08-13T20:55:36.401Z,45.11
2018-08-13T20:58:05.654Z,44.56
2018-08-13T21:00:35.183Z,45.44
2018-08-13T21:03:04.516Z,45.00
2018-08-13T21:05:33.742Z,46.02
2018-08-13T21:08:02.970Z,44.54
2018-08-13T21:10:32.196Z,44.60
2018-08-13T21:13:01.739Z,45.80
2018-08-13T21:15:30.981Z,45.71
2018-08-13T21:18:00.184Z,45.22
2018-08-13T21:20:29.950Z,45.59
2018-08-13T21:22:59.548Z,45.36
2018-08-13T21:25:28.809Z,45.10
2018-08-13T21:27:58.513Z,44.61
2018-08-13T21:30:27.717Z,44.27
2018-08-13T21:32:56.896Z,45.60
2018-08-13T21:35:26.861Z,45.51
2018-08-13T21:37:56.120Z,45.46
2018-08-13T21:40:25.631Z,46.22
2018-08-13T21:42:54.883Z,46.49
2018-08-13T21:45:24.336Z,47.00
2018-08-13T21:47:53.849Z,47.17
2018-08-13T21:50:23.921Z,46.55
2018-08-13T21:52:53.562Z,48.14
2018-08-13T21:55:22.877Z,47.17
2018-08-13T21:57:52.347Z,47.23
2018-08-13T22:00:26.384Z,49.30
2018-08-13T22:02:56.288Z,50.31
2018-08-13T22:05:25.864Z,51.63
2018-08-13T22:07:55.658Z,52.28
2018-08-13T22:10:25.401Z,53.15
2018-08-13T22:12:54.704Z,54.05
2018-08-13T22:15:28.794Z,53.67
2018-08-13T22:17:59.579Z,53.52
2018-08-13T22:20:29.939Z,53.04
2018-08-13T22:23:00.246Z,53.89
2018-08-13T22:25:31.331Z,52.76
2018-08-13T22:28:00.766Z,52.38
2018-08-13T22:30:31.726Z,53.49
2018-08-13T22:33:00.990Z,53.80
2018-08-13T22:35:30.211Z,55.43
2018-08-13T22:37:59.529Z,55.45
2018-08-13T22:40:28.802Z,57.57
2018-08-13T22:42:58.015Z,58.15
2018-08-13T22:45:27.277Z,58.74
2018-08-13T22:47:56.477Z,57.38
2018-08-13T22:50:26.171Z,57.11
2018-08-13T22:52:55.644Z,57.64
2018-08-13T22:55:25.301Z,56.36
2018-08-13T22:57:54.579Z,59.74
2018-08-13T23:00:24.839Z,60.72
2018-08-13T23:02:54.078Z,61.97
2018-08-13T23:05:25.473Z,63.68
2018-08-13T23:07:54.770Z,67.42
2018-08-13T23:10:25.015Z,70.86
2018-08-13T23:12:55.790Z,69.08
2018-08-13T23:15:25.485Z,67.25
2018-08-13T23:17:55.197Z,68.43
2018-08-13T23:20:27.804Z,68.50
2018-08-13T23:23:00.252Z,70.24
2018-08-13T23:25:30.326Z,66.19
2018-08-13T23:28:00.802Z,66.46
2018-08-13T23:30:30.216Z,66.61
2018-08-13T23:32:59.824Z,67.55
2018-08-13T23:35:29.857Z,68.71
2018-08-13T23:37:58.652Z,67.00
2018-08-13T23:40:27.483Z,66.69
2018-08-13T23:42:56.387Z,65.90
2018-08-13T23:45:26.564Z,67.72
2018-08-13T23:47:55.669Z,70.21
2018-08-13T23:50:26.173Z,70.53
2018-08-13T23:52:57.638Z,72.23
2018-08-13T23:55:38.351Z,72.25
2018-08-13T23:58:14.922Z,71.81
